sensor_id;sensor_type;location;lat;lon;timestamp;P1;durP1;ratioP1;P2;durP2;ratioP2
11247;SDS011;5681;53.316;13.950;2023-04-29T00:00:45;21.52;;;17.55;;
11247;SDS011;5681;53.316;13.950;2023-04-29T00:03:11;23.92;;;17.25;;
11247;SDS011;5681;53.316;13.950;2023-04-29T00:05:38;19.90;;;16.85;;
11247;SDS011;5681;53.316;13.950;2023-04-29T00:08:04;20.25;;;17.85;;
11247;SDS011;5681;53.316;13.950;2023-04-29T00:10:31;19.83;;;16.98;;
11247;SDS011;5681;53.316;13.950;2023-04-29T00:12:57;20.33;;;17.60;;
11247;SDS011;5681;53.316;13.950;2023-04-29T00:15:25;19.30;;;17.40;;
11247;SDS011;5681;53.316;13.950;2023-04-29T00:17:52;21.85;;;17.65;;
11247;SDS011;5681;53.316;13.950;2023-04-29T00:20:18;22.02;;;18.08;;
11247;SDS011;5681;53.316;13.950;2023-04-29T00:22:45;24.77;;;19.38;;
11247;SDS011;5681;53.316;13.950;2023-04-29T00:25:11;24.15;;;18.80;;
11247;SDS011;5681;53.316;13.950;2023-04-29T00:27:38;27.00;;;19.08;;
11247;SDS011;5681;53.316;13.950;2023-04-29T00:30:05;22.90;;;18.80;;
11247;SDS011;5681;53.316;13.950;2023-04-29T00:32:34;20.98;;;18.75;;
11247;SDS011;5681;53.316;13.950;2023-04-29T00:35:00;26.92;;;18.17;;
11247;SDS011;5681;53.316;13.950;2023-04-29T00:37:27;22.13;;;19.30;;
11247;SDS011;5681;53.316;13.950;2023-04-29T00:39:53;22.67;;;18.95;;
11247;SDS011;5681;53.316;13.950;2023-04-29T00:42:20;23.73;;;18.20;;
11247;SDS011;5681;53.316;13.950;2023-04-29T00:44:46;20.42;;;18.33;;
11247;SDS011;5681;53.316;13.950;2023-04-29T00:47:13;22.60;;;17.60;;
11247;SDS011;5681;53.316;13.950;2023-04-29T00:49:40;21.42;;;18.13;;
11247;SDS011;5681;53.316;13.950;2023-04-29T00:52:07;20.55;;;17.52;;
11247;SDS011;5681;53.316;13.950;2023-04-29T00:54:33;25.08;;;17.85;;
11247;SDS011;5681;53.316;13.950;2023-04-29T00:57:00;20.50;;;18.23;;
11247;SDS011;5681;53.316;13.950;2023-04-29T00:59:26;23.25;;;16.98;;
11247;SDS011;5681;53.316;13.950;2023-04-29T01:01:56;21.30;;;17.73;;
11247;SDS011;5681;53.316;13.950;2023-04-29T01:04:23;20.25;;;18.10;;
11247;SDS011;5681;53.316;13.950;2023-04-29T01:06:53;23.85;;;18.35;;
11247;SDS011;5681;53.316;13.950;2023-04-29T01:09:28;18.92;;;16.75;;
11247;SDS011;5681;53.316;13.950;2023-04-29T01:12:06;24.02;;;17.33;;
11247;SDS011;5681;53.316;13.950;2023-04-29T01:14:35;18.65;;;15.95;;
11247;SDS011;5681;53.316;13.950;2023-04-29T01:17:04;20.20;;;17.92;;
11247;SDS011;5681;53.316;13.950;2023-04-29T01:19:36;19.33;;;17.00;;
11247;SDS011;5681;53.316;13.950;2023-04-29T01:22:07;21.88;;;17.77;;
11247;SDS011;5681;53.316;13.950;2023-04-29T01:24:34;24.40;;;17.65;;
11247;SDS011;5681;53.316;13.950;2023-04-29T01:27:04;24.48;;;17.88;;
11247;SDS011;5681;53.316;13.950;2023-04-29T01:29:39;21.27;;;18.15;;
11247;SDS011;5681;53.316;13.950;2023-04-29T01:32:10;20.23;;;17.88;;
11247;SDS011;5681;53.316;13.950;2023-04-29T01:34:41;19.88;;;17.85;;
11247;SDS011;5681;53.316;13.950;2023-04-29T01:37:13;20.35;;;18.17;;
11247;SDS011;5681;53.316;13.950;2023-04-29T01:39:45;20.90;;;18.55;;
11247;SDS011;5681;53.316;13.950;2023-04-29T01:42:17;19.92;;;17.83;;
11247;SDS011;5681;53.316;13.950;2023-04-29T01:44:48;21.08;;;18.17;;
11247;SDS011;5681;53.316;13.950;2023-04-29T01:47:16;21.88;;;17.83;;
11247;SDS011;5681;53.316;13.950;2023-04-29T01:49:43;22.30;;;19.40;;
11247;SDS011;5681;53.316;13.950;2023-04-29T01:52:10;25.20;;;18.50;;
11247;SDS011;5681;53.316;13.950;2023-04-29T01:54:39;22.10;;;18.33;;
11247;SDS011;5681;53.316;13.950;2023-04-29T01:57:07;23.20;;;19.67;;
11247;SDS011;5681;53.316;13.950;2023-04-29T01:59:33;25.13;;;19.35;;
11247;SDS011;5681;53.316;13.950;2023-04-29T02:02:00;25.90;;;19.45;;
11247;SDS011;5681;53.316;13.950;2023-04-29T02:04:26;22.75;;;20.33;;
11247;SDS011;5681;53.316;13.950;2023-04-29T02:06:53;22.10;;;19.65;;
11247;SDS011;5681;53.316;13.950;2023-04-29T02:09:19;23.48;;;19.70;;
11247;SDS011;5681;53.316;13.950;2023-04-29T02:11:46;28.63;;;19.50;;
11247;SDS011;5681;53.316;13.950;2023-04-29T02:14:13;21.48;;;19.23;;
11247;SDS011;5681;53.316;13.950;2023-04-29T02:16:42;23.40;;;20.30;;
11247;SDS011;5681;53.316;13.950;2023-04-29T02:19:09;24.20;;;20.75;;
11247;SDS011;5681;53.316;13.950;2023-04-29T02:21:35;30.13;;;20.63;;
11247;SDS011;5681;53.316;13.950;2023-04-29T02:24:04;21.25;;;18.95;;
11247;SDS011;5681;53.316;13.950;2023-04-29T02:26:30;23.77;;;20.67;;
11247;SDS011;5681;53.316;13.950;2023-04-29T02:28:57;22.63;;;19.88;;
11247;SDS011;5681;53.316;13.950;2023-04-29T02:31:25;24.13;;;21.00;;
11247;SDS011;5681;53.316;13.950;2023-04-29T02:33:53;23.67;;;21.45;;
11247;SDS011;5681;53.316;13.950;2023-04-29T02:36:19;27.92;;;22.38;;
11247;SDS011;5681;53.316;13.950;2023-04-29T02:38:45;30.95;;;22.77;;
11247;SDS011;5681;53.316;13.950;2023-04-29T02:41:15;27.77;;;22.33;;
11247;SDS011;5681;53.316;13.950;2023-04-29T02:43:41;30.13;;;23.42;;
11247;SDS011;5681;53.316;13.950;2023-04-29T02:46:08;29.70;;;23.30;;
11247;SDS011;5681;53.316;13.950;2023-04-29T02:48:36;28.73;;;23.83;;
11247;SDS011;5681;53.316;13.950;2023-04-29T02:51:02;26.63;;;23.50;;
11247;SDS011;5681;53.316;13.950;2023-04-29T02:53:28;26.85;;;23.65;;
11247;SDS011;5681;53.316;13.950;2023-04-29T02:55:55;27.73;;;24.20;;
11247;SDS011;5681;53.316;13.950;2023-04-29T02:58:21;28.70;;;24.60;;
11247;SDS011;5681;53.316;13.950;2023-04-29T03:00:48;27.90;;;24.13;;
11247;SDS011;5681;53.316;13.950;2023-04-29T03:03:14;30.00;;;23.80;;
11247;SDS011;5681;53.316;13.950;2023-04-29T03:05:42;30.17;;;24.40;;
11247;SDS011;5681;53.316;13.950;2023-04-29T03:08:08;28.90;;;24.42;;
11247;SDS011;5681;53.316;13.950;2023-04-29T03:10:35;27.80;;;24.35;;
11247;SDS011;5681;53.316;13.950;2023-04-29T03:13:01;27.80;;;23.13;;
11247;SDS011;5681;53.316;13.950;2023-04-29T03:15:28;27.17;;;23.83;;
11247;SDS011;5681;53.316;13.950;2023-04-29T03:17:54;24.42;;;21.88;;
11247;SDS011;5681;53.316;13.950;2023-04-29T03:20:21;27.98;;;22.48;;
11247;SDS011;5681;53.316;13.950;2023-04-29T03:22:49;27.25;;;22.05;;
11247;SDS011;5681;53.316;13.950;2023-04-29T03:25:15;25.00;;;21.65;;
11247;SDS011;5681;53.316;13.950;2023-04-29T03:27:42;27.38;;;21.92;;
11247;SDS011;5681;53.316;13.950;2023-04-29T03:30:09;28.63;;;21.63;;
11247;SDS011;5681;53.316;13.950;2023-04-29T03:32:36;24.40;;;21.80;;
11247;SDS011;5681;53.316;13.950;2023-04-29T03:35:02;25.20;;;21.13;;
11247;SDS011;5681;53.316;13.950;2023-04-29T03:37:29;27.00;;;21.45;;
11247;SDS011;5681;53.316;13.950;2023-04-29T03:39:56;26.77;;;20.85;;
11247;SDS011;5681;53.316;13.950;2023-04-29T03:42:23;25.83;;;21.50;;
11247;SDS011;5681;53.316;13.950;2023-04-29T03:44:49;28.38;;;22.60;;
11247;SDS011;5681;53.316;13.950;2023-04-29T03:47:16;25.00;;;22.30;;
11247;SDS011;5681;53.316;13.950;2023-04-29T03:49:42;26.40;;;22.30;;
11247;SDS011;5681;53.316;13.950;2023-04-29T03:52:08;27.08;;;23.08;;
11247;SDS011;5681;53.316;13.950;2023-04-29T03:54:36;28.63;;;22.52;;
11247;SDS011;5681;53.316;13.950;2023-04-29T03:57:04;36.58;;;23.77;;
11247;SDS011;5681;53.316;13.950;2023-04-29T03:59:30;27.90;;;23.10;;
11247;SDS011;5681;53.316;13.950;2023-04-29T04:01:56;28.15;;;23.27;;
11247;SDS011;5681;53.316;13.950;2023-04-29T04:04:23;28.83;;;22.33;;
11247;SDS011;5681;53.316;13.950;2023-04-29T04:06:50;27.30;;;22.63;;
11247;SDS011;5681;53.316;13.950;2023-04-29T04:09:16;28.35;;;22.35;;
11247;SDS011;5681;53.316;13.950;2023-04-29T04:11:43;27.67;;;22.48;;
11247;SDS011;5681;53.316;13.950;2023-04-29T04:14:11;26.77;;;23.38;;
11247;SDS011;5681;53.316;13.950;2023-04-29T04:16:38;28.95;;;23.77;;
11247;SDS011;5681;53.316;13.950;2023-04-29T04:19:05;30.08;;;22.65;;
11247;SDS011;5681;53.316;13.950;2023-04-29T04:21:31;30.63;;;23.42;;
11247;SDS011;5681;53.316;13.950;2023-04-29T04:23:57;29.02;;;24.50;;
11247;SDS011;5681;53.316;13.950;2023-04-29T04:26:24;32.30;;;25.08;;
11247;SDS011;5681;53.316;13.950;2023-04-29T04:28:50;30.00;;;23.40;;
11247;SDS011;5681;53.316;13.950;2023-04-29T04:31:18;29.02;;;23.50;;
11247;SDS011;5681;53.316;13.950;2023-04-29T04:33:44;29.85;;;23.73;;
11247;SDS011;5681;53.316;13.950;2023-04-29T04:36:10;27.98;;;22.95;;
11247;SDS011;5681;53.316;13.950;2023-04-29T04:38:37;27.00;;;23.30;;
11247;SDS011;5681;53.316;13.950;2023-04-29T04:41:04;31.40;;;24.08;;
11247;SDS011;5681;53.316;13.950;2023-04-29T04:43:31;28.40;;;23.55;;
11247;SDS011;5681;53.316;13.950;2023-04-29T04:45:57;26.90;;;22.58;;
11247;SDS011;5681;53.316;13.950;2023-04-29T04:48:25;26.70;;;23.83;;
11247;SDS011;5681;53.316;13.950;2023-04-29T04:50:51;24.95;;;22.33;;
11247;SDS011;5681;53.316;13.950;2023-04-29T04:53:18;27.55;;;23.50;;
11247;SDS011;5681;53.316;13.950;2023-04-29T04:55:44;29.80;;;23.45;;
11247;SDS011;5681;53.316;13.950;2023-04-29T04:58:10;25.60;;;22.85;;
11247;SDS011;5681;53.316;13.950;2023-04-29T05:00:37;27.00;;;23.17;;
11247;SDS011;5681;53.316;13.950;2023-04-29T05:03:03;28.35;;;23.20;;
11247;SDS011;5681;53.316;13.950;2023-04-29T05:05:32;26.92;;;23.45;;
11247;SDS011;5681;53.316;13.950;2023-04-29T05:07:58;30.02;;;23.27;;
11247;SDS011;5681;53.316;13.950;2023-04-29T05:10:25;24.83;;;22.08;;
11247;SDS011;5681;53.316;13.950;2023-04-29T05:12:51;29.15;;;22.88;;
11247;SDS011;5681;53.316;13.950;2023-04-29T05:15:17;25.13;;;21.95;;
11247;SDS011;5681;53.316;13.950;2023-04-29T05:17:44;25.48;;;21.95;;
11247;SDS011;5681;53.316;13.950;2023-04-29T05:20:10;28.52;;;22.08;;
11247;SDS011;5681;53.316;13.950;2023-04-29T05:22:38;26.10;;;21.58;;
11247;SDS011;5681;53.316;13.950;2023-04-29T05:25:05;25.55;;;22.40;;
11247;SDS011;5681;53.316;13.950;2023-04-29T05:27:32;26.13;;;21.58;;
11247;SDS011;5681;53.316;13.950;2023-04-29T05:29:58;27.13;;;21.83;;
11247;SDS011;5681;53.316;13.950;2023-04-29T05:32:27;25.05;;;21.50;;
11247;SDS011;5681;53.316;13.950;2023-04-29T05:34:53;25.88;;;21.55;;
11247;SDS011;5681;53.316;13.950;2023-04-29T05:37:20;26.45;;;22.92;;
11247;SDS011;5681;53.316;13.950;2023-04-29T05:39:48;28.48;;;22.10;;
11247;SDS011;5681;53.316;13.950;2023-04-29T05:42:14;27.90;;;22.60;;
11247;SDS011;5681;53.316;13.950;2023-04-29T05:44:40;30.00;;;23.42;;
11247;SDS011;5681;53.316;13.950;2023-04-29T05:47:07;28.98;;;23.10;;
11247;SDS011;5681;53.316;13.950;2023-04-29T05:49:33;26.33;;;23.38;;
11247;SDS011;5681;53.316;13.950;2023-04-29T05:51:59;25.75;;;22.42;;
11247;SDS011;5681;53.316;13.950;2023-04-29T05:54:30;26.98;;;24.00;;
11247;SDS011;5681;53.316;13.950;2023-04-29T05:56:58;30.23;;;23.80;;
11247;SDS011;5681;53.316;13.950;2023-04-29T05:59:26;26.10;;;22.60;;
11247;SDS011;5681;53.316;13.950;2023-04-29T06:01:52;25.70;;;22.90;;
11247;SDS011;5681;53.316;13.950;2023-04-29T06:04:20;26.95;;;22.23;;
11247;SDS011;5681;53.316;13.950;2023-04-29T06:06:46;28.00;;;21.52;;
11247;SDS011;5681;53.316;13.950;2023-04-29T06:09:13;29.38;;;22.92;;
11247;SDS011;5681;53.316;13.950;2023-04-29T06:11:41;27.67;;;22.10;;
11247;SDS011;5681;53.316;13.950;2023-04-29T06:14:09;26.70;;;22.25;;
11247;SDS011;5681;53.316;13.950;2023-04-29T06:16:36;26.90;;;22.33;;
11247;SDS011;5681;53.316;13.950;2023-04-29T06:19:02;26.30;;;22.23;;
11247;SDS011;5681;53.316;13.950;2023-04-29T06:21:28;28.27;;;21.45;;
11247;SDS011;5681;53.316;13.950;2023-04-29T06:23:55;25.27;;;21.92;;
11247;SDS011;5681;53.316;13.950;2023-04-29T06:26:21;24.65;;;21.55;;
11247;SDS011;5681;53.316;13.950;2023-04-29T06:28:48;26.90;;;22.67;;
11247;SDS011;5681;53.316;13.950;2023-04-29T06:31:16;26.00;;;20.98;;
11247;SDS011;5681;53.316;13.950;2023-04-29T06:33:42;26.45;;;22.25;;
11247;SDS011;5681;53.316;13.950;2023-04-29T06:36:08;24.50;;;22.00;;
11247;SDS011;5681;53.316;13.950;2023-04-29T06:38:35;24.55;;;21.83;;
11247;SDS011;5681;53.316;13.950;2023-04-29T06:41:01;30.75;;;22.75;;
11247;SDS011;5681;53.316;13.950;2023-04-29T06:43:28;29.17;;;21.88;;
11247;SDS011;5681;53.316;13.950;2023-04-29T06:45:54;27.45;;;21.75;;
11247;SDS011;5681;53.316;13.950;2023-04-29T06:48:22;26.92;;;20.70;;
11247;SDS011;5681;53.316;13.950;2023-04-29T06:50:52;24.50;;;22.00;;
11247;SDS011;5681;53.316;13.950;2023-04-29T06:53:20;23.55;;;21.00;;
11247;SDS011;5681;53.316;13.950;2023-04-29T06:55:47;26.33;;;20.48;;
11247;SDS011;5681;53.316;13.950;2023-04-29T06:58:13;26.13;;;21.08;;
11247;SDS011;5681;53.316;13.950;2023-04-29T07:00:42;22.65;;;19.77;;
11247;SDS011;5681;53.316;13.950;2023-04-29T07:03:09;29.65;;;21.05;;
11247;SDS011;5681;53.316;13.950;2023-04-29T07:05:37;26.15;;;20.55;;
11247;SDS011;5681;53.316;13.950;2023-04-29T07:08:04;25.70;;;21.27;;
11247;SDS011;5681;53.316;13.950;2023-04-29T07:10:31;27.33;;;21.80;;
11247;SDS011;5681;53.316;13.950;2023-04-29T07:12:57;25.02;;;20.70;;
11247;SDS011;5681;53.316;13.950;2023-04-29T07:15:24;24.33;;;21.08;;
11247;SDS011;5681;53.316;13.950;2023-04-29T07:18:00;24.50;;;21.30;;
11247;SDS011;5681;53.316;13.950;2023-04-29T07:20:28;24.38;;;20.80;;
11247;SDS011;5681;53.316;13.950;2023-04-29T07:22:56;24.63;;;21.88;;
11247;SDS011;5681;53.316;13.950;2023-04-29T07:25:22;23.85;;;20.60;;
11247;SDS011;5681;53.316;13.950;2023-04-29T07:27:48;25.73;;;20.85;;
11247;SDS011;5681;53.316;13.950;2023-04-29T07:30:15;26.20;;;22.10;;
11247;SDS011;5681;53.316;13.950;2023-04-29T07:32:41;25.90;;;22.10;;
11247;SDS011;5681;53.316;13.950;2023-04-29T07:35:11;24.42;;;21.77;;
11247;SDS011;5681;53.316;13.950;2023-04-29T07:37:37;27.05;;;22.15;;
11247;SDS011;5681;53.316;13.950;2023-04-29T07:40:05;26.33;;;23.33;;
11247;SDS011;5681;53.316;13.950;2023-04-29T07:42:32;27.27;;;23.13;;
11247;SDS011;5681;53.316;13.950;2023-04-29T07:44:59;27.55;;;24.50;;
11247;SDS011;5681;53.316;13.950;2023-04-29T07:47:25;31.10;;;25.50;;
11247;SDS011;5681;53.316;13.950;2023-04-29T07:49:52;29.83;;;26.65;;
11247;SDS011;5681;53.316;13.950;2023-04-29T07:52:18;32.20;;;26.42;;
11247;SDS011;5681;53.316;13.950;2023-04-29T07:54:45;30.63;;;25.55;;
11247;SDS011;5681;53.316;13.950;2023-04-29T07:57:12;29.48;;;26.27;;
11247;SDS011;5681;53.316;13.950;2023-04-29T07:59:39;29.38;;;26.27;;
11247;SDS011;5681;53.316;13.950;2023-04-29T08:02:05;30.30;;;25.70;;
11247;SDS011;5681;53.316;13.950;2023-04-29T08:04:31;31.20;;;26.88;;
11247;SDS011;5681;53.316;13.950;2023-04-29T08:06:58;30.83;;;27.58;;
11247;SDS011;5681;53.316;13.950;2023-04-29T08:09:24;34.33;;;26.70;;
11247;SDS011;5681;53.316;13.950;2023-04-29T08:11:51;30.98;;;26.13;;
11247;SDS011;5681;53.316;13.950;2023-04-29T08:14:18;28.35;;;25.55;;
11247;SDS011;5681;53.316;13.950;2023-04-29T08:16:45;26.35;;;23.75;;
11247;SDS011;5681;53.316;13.950;2023-04-29T08:19:11;31.02;;;25.38;;
11247;SDS011;5681;53.316;13.950;2023-04-29T08:21:40;31.73;;;25.10;;
11247;SDS011;5681;53.316;13.950;2023-04-29T08:24:07;28.45;;;25.42;;
11247;SDS011;5681;53.316;13.950;2023-04-29T08:26:33;28.98;;;25.98;;
11247;SDS011;5681;53.316;13.950;2023-04-29T08:29:00;28.52;;;25.48;;
11247;SDS011;5681;53.316;13.950;2023-04-29T08:31:27;26.70;;;23.73;;
11247;SDS011;5681;53.316;13.950;2023-04-29T08:33:54;26.20;;;22.45;;
11247;SDS011;5681;53.316;13.950;2023-04-29T08:36:22;30.92;;;22.60;;
11247;SDS011;5681;53.316;13.950;2023-04-29T08:38:49;27.85;;;22.35;;
11247;SDS011;5681;53.316;13.950;2023-04-29T08:41:16;24.45;;;21.85;;
11247;SDS011;5681;53.316;13.950;2023-04-29T08:43:43;24.65;;;20.92;;
11247;SDS011;5681;53.316;13.950;2023-04-29T08:46:09;24.40;;;21.17;;
11247;SDS011;5681;53.316;13.950;2023-04-29T08:48:37;25.98;;;21.55;;
11247;SDS011;5681;53.316;13.950;2023-04-29T08:51:05;23.98;;;21.33;;
11247;SDS011;5681;53.316;13.950;2023-04-29T08:53:31;21.77;;;19.48;;
11247;SDS011;5681;53.316;13.950;2023-04-29T08:55:59;25.52;;;19.30;;
11247;SDS011;5681;53.316;13.950;2023-04-29T08:58:28;23.10;;;19.40;;
11247;SDS011;5681;53.316;13.950;2023-04-29T09:00:59;23.88;;;18.10;;
11247;SDS011;5681;53.316;13.950;2023-04-29T09:03:26;21.20;;;18.60;;
11247;SDS011;5681;53.316;13.950;2023-04-29T09:05:55;24.80;;;18.75;;
11247;SDS011;5681;53.316;13.950;2023-04-29T09:08:22;22.40;;;16.77;;
11247;SDS011;5681;53.316;13.950;2023-04-29T09:10:49;22.10;;;16.58;;
11247;SDS011;5681;53.316;13.950;2023-04-29T09:13:22;24.30;;;16.15;;
11247;SDS011;5681;53.316;13.950;2023-04-29T09:15:49;20.83;;;17.00;;
11247;SDS011;5681;53.316;13.950;2023-04-29T09:21:12;22.17;;;17.15;;
11247;SDS011;5681;53.316;13.950;2023-04-29T09:23:42;18.25;;;15.60;;
11247;SDS011;5681;53.316;13.950;2023-04-29T09:26:09;22.60;;;15.90;;
11247;SDS011;5681;53.316;13.950;2023-04-29T09:28:36;18.95;;;15.55;;
11247;SDS011;5681;53.316;13.950;2023-04-29T09:31:03;20.42;;;14.98;;
11247;SDS011;5681;53.316;13.950;2023-04-29T09:33:44;18.02;;;15.40;;
11247;SDS011;5681;53.316;13.950;2023-04-29T09:36:17;19.70;;;15.07;;
11247;SDS011;5681;53.316;13.950;2023-04-29T09:39:00;17.77;;;13.98;;
11247;SDS011;5681;53.316;13.950;2023-04-29T09:41:26;22.98;;;14.50;;
11247;SDS011;5681;53.316;13.950;2023-04-29T09:44:01;16.38;;;14.13;;
11247;SDS011;5681;53.316;13.950;2023-04-29T09:46:29;17.42;;;14.82;;
11247;SDS011;5681;53.316;13.950;2023-04-29T09:48:55;22.25;;;15.43;;
11247;SDS011;5681;53.316;13.950;2023-04-29T09:51:24;20.15;;;15.48;;
11247;SDS011;5681;53.316;13.950;2023-04-29T09:53:50;20.10;;;14.55;;
11247;SDS011;5681;53.316;13.950;2023-04-29T09:56:16;17.52;;;14.88;;
11247;SDS011;5681;53.316;13.950;2023-04-29T09:58:43;23.83;;;15.27;;
11247;SDS011;5681;53.316;13.950;2023-04-29T10:01:10;17.52;;;14.95;;
11247;SDS011;5681;53.316;13.950;2023-04-29T10:03:37;20.08;;;14.10;;
11247;SDS011;5681;53.316;13.950;2023-04-29T10:06:04;19.40;;;14.98;;
11247;SDS011;5681;53.316;13.950;2023-04-29T10:08:33;18.17;;;14.75;;
11247;SDS011;5681;53.316;13.950;2023-04-29T10:11:00;19.25;;;14.73;;
11247;SDS011;5681;53.316;13.950;2023-04-29T10:13:28;16.13;;;13.88;;
11247;SDS011;5681;53.316;13.950;2023-04-29T10:15:57;17.40;;;13.50;;
11247;SDS011;5681;53.316;13.950;2023-04-29T10:18:29;19.48;;;14.27;;
11247;SDS011;5681;53.316;13.950;2023-04-29T10:20:59;14.85;;;13.25;;
11247;SDS011;5681;53.316;13.950;2023-04-29T10:23:27;18.67;;;13.60;;
11247;SDS011;5681;53.316;13.950;2023-04-29T10:25:55;20.98;;;14.70;;
11247;SDS011;5681;53.316;13.950;2023-04-29T10:28:22;16.73;;;13.82;;
11247;SDS011;5681;53.316;13.950;2023-04-29T10:30:50;15.52;;;13.90;;
11247;SDS011;5681;53.316;13.950;2023-04-29T10:33:16;20.10;;;13.65;;
11247;SDS011;5681;53.316;13.950;2023-04-29T10:35:43;19.92;;;13.63;;
11247;SDS011;5681;53.316;13.950;2023-04-29T10:38:12;15.38;;;13.50;;
11247;SDS011;5681;53.316;13.950;2023-04-29T10:40:41;17.55;;;13.90;;
11247;SDS011;5681;53.316;13.950;2023-04-29T10:43:11;15.40;;;12.50;;
11247;SDS011;5681;53.316;13.950;2023-04-29T10:45:38;15.63;;;12.63;;
11247;SDS011;5681;53.316;13.950;2023-04-29T10:48:08;14.98;;;12.73;;
11247;SDS011;5681;53.316;13.950;2023-04-29T10:50:39;17.25;;;13.02;;
11247;SDS011;5681;53.316;13.950;2023-04-29T10:53:21;16.85;;;12.70;;
11247;SDS011;5681;53.316;13.950;2023-04-29T10:55:48;16.08;;;12.35;;
11247;SDS011;5681;53.316;13.950;2023-04-29T10:58:34;14.30;;;12.68;;
11247;SDS011;5681;53.316;13.950;2023-04-29T11:01:01;15.00;;;12.43;;
11247;SDS011;5681;53.316;13.950;2023-04-29T11:03:50;15.77;;;13.23;;
11247;SDS011;5681;53.316;13.950;2023-04-29T11:06:19;16.30;;;12.65;;
11247;SDS011;5681;53.316;13.950;2023-04-29T11:08:45;16.38;;;12.57;;
11247;SDS011;5681;53.316;13.950;2023-04-29T11:11:12;15.48;;;11.88;;
11247;SDS011;5681;53.316;13.950;2023-04-29T11:13:40;15.00;;;11.77;;
11247;SDS011;5681;53.316;13.950;2023-04-29T11:16:11;15.30;;;11.90;;
11247;SDS011;5681;53.316;13.950;2023-04-29T11:21:32;16.30;;;12.45;;
11247;SDS011;5681;53.316;13.950;2023-04-29T11:23:59;14.55;;;11.63;;
11247;SDS011;5681;53.316;13.950;2023-04-29T11:26:26;14.40;;;11.90;;
11247;SDS011;5681;53.316;13.950;2023-04-29T11:28:53;13.27;;;11.30;;
11247;SDS011;5681;53.316;13.950;2023-04-29T11:31:24;14.90;;;11.05;;
11247;SDS011;5681;53.316;13.950;2023-04-29T11:33:53;13.63;;;11.00;;
11247;SDS011;5681;53.316;13.950;2023-04-29T11:36:19;14.80;;;10.25;;
11247;SDS011;5681;53.316;13.950;2023-04-29T11:38:45;12.40;;;10.35;;
11247;SDS011;5681;53.316;13.950;2023-04-29T11:41:12;19.17;;;10.18;;
11247;SDS011;5681;53.316;13.950;2023-04-29T11:43:39;16.67;;;10.50;;
11247;SDS011;5681;53.316;13.950;2023-04-29T11:46:12;12.45;;;9.23;;
11247;SDS011;5681;53.316;13.950;2023-04-29T11:48:44;12.20;;;9.68;;
11247;SDS011;5681;53.316;13.950;2023-04-29T11:51:11;10.32;;;9.07;;
11247;SDS011;5681;53.316;13.950;2023-04-29T11:53:37;16.17;;;9.50;;
11247;SDS011;5681;53.316;13.950;2023-04-29T11:56:04;15.23;;;9.07;;
11247;SDS011;5681;53.316;13.950;2023-04-29T11:58:31;9.73;;;8.07;;
11247;SDS011;5681;53.316;13.950;2023-04-29T12:00:57;9.80;;;8.48;;
11247;SDS011;5681;53.316;13.950;2023-04-29T12:03:25;11.45;;;8.70;;
11247;SDS011;5681;53.316;13.950;2023-04-29T12:05:52;10.38;;;8.13;;
11247;SDS011;5681;53.316;13.950;2023-04-29T12:08:19;8.68;;;7.78;;
11247;SDS011;5681;53.316;13.950;2023-04-29T12:10:45;11.30;;;8.57;;
11247;SDS011;5681;53.316;13.950;2023-04-29T12:13:12;10.23;;;8.05;;
11247;SDS011;5681;53.316;13.950;2023-04-29T12:15:38;12.10;;;7.80;;
11247;SDS011;5681;53.316;13.950;2023-04-29T12:18:05;12.02;;;8.00;;
11247;SDS011;5681;53.316;13.950;2023-04-29T12:20:33;9.27;;;7.75;;
11247;SDS011;5681;53.316;13.950;2023-04-29T12:23:09;13.15;;;9.07;;
11247;SDS011;5681;53.316;13.950;2023-04-29T12:25:36;9.20;;;8.27;;
11247;SDS011;5681;53.316;13.950;2023-04-29T12:28:03;13.15;;;8.13;;
11247;SDS011;5681;53.316;13.950;2023-04-29T12:30:29;9.75;;;8.00;;
11247;SDS011;5681;53.316;13.950;2023-04-29T12:32:59;11.82;;;8.82;;
11247;SDS011;5681;53.316;13.950;2023-04-29T12:35:27;11.30;;;9.13;;
11247;SDS011;5681;53.316;13.950;2023-04-29T12:37:56;12.60;;;9.75;;
11247;SDS011;5681;53.316;13.950;2023-04-29T12:40:23;11.07;;;8.82;;
11247;SDS011;5681;53.316;13.950;2023-04-29T12:42:51;10.65;;;8.93;;
11247;SDS011;5681;53.316;13.950;2023-04-29T12:45:25;11.60;;;7.90;;
11247;SDS011;5681;53.316;13.950;2023-04-29T12:47:52;11.07;;;7.90;;
11247;SDS011;5681;53.316;13.950;2023-04-29T12:50:26;12.38;;;8.20;;
11247;SDS011;5681;53.316;13.950;2023-04-29T12:52:55;12.10;;;8.27;;
11247;SDS011;5681;53.316;13.950;2023-04-29T12:55:21;8.93;;;7.18;;
11247;SDS011;5681;53.316;13.950;2023-04-29T12:57:48;11.85;;;7.65;;
11247;SDS011;5681;53.316;13.950;2023-04-29T13:00:14;11.10;;;7.65;;
11247;SDS011;5681;53.316;13.950;2023-04-29T13:02:41;9.45;;;7.65;;
11247;SDS011;5681;53.316;13.950;2023-04-29T13:05:07;15.38;;;7.82;;
11247;SDS011;5681;53.316;13.950;2023-04-29T13:07:34;9.32;;;6.60;;
11247;SDS011;5681;53.316;13.950;2023-04-29T13:10:01;8.82;;;6.85;;
11247;SDS011;5681;53.316;13.950;2023-04-29T13:12:30;8.85;;;7.20;;
11247;SDS011;5681;53.316;13.950;2023-04-29T13:14:56;9.77;;;7.15;;
11247;SDS011;5681;53.316;13.950;2023-04-29T13:17:23;9.10;;;7.25;;
11247;SDS011;5681;53.316;13.950;2023-04-29T13:19:49;8.23;;;7.13;;
11247;SDS011;5681;53.316;13.950;2023-04-29T13:22:16;10.98;;;7.80;;
11247;SDS011;5681;53.316;13.950;2023-04-29T13:24:42;12.63;;;7.20;;
11247;SDS011;5681;53.316;13.950;2023-04-29T13:27:10;13.10;;;7.00;;
11247;SDS011;5681;53.316;13.950;2023-04-29T13:29:36;8.43;;;6.97;;
11247;SDS011;5681;53.316;13.950;2023-04-29T13:32:03;11.07;;;7.90;;
11247;SDS011;5681;53.316;13.950;2023-04-29T13:34:29;14.10;;;6.72;;
11247;SDS011;5681;53.316;13.950;2023-04-29T13:36:56;10.40;;;6.65;;
11247;SDS011;5681;53.316;13.950;2023-04-29T13:39:22;9.30;;;7.53;;
11247;SDS011;5681;53.316;13.950;2023-04-29T13:41:48;8.80;;;6.15;;
11247;SDS011;5681;53.316;13.950;2023-04-29T13:44:16;9.10;;;6.72;;
11247;SDS011;5681;53.316;13.950;2023-04-29T13:46:43;8.82;;;6.95;;
11247;SDS011;5681;53.316;13.950;2023-04-29T13:49:10;11.20;;;7.22;;
11247;SDS011;5681;53.316;13.950;2023-04-29T13:51:36;9.10;;;6.53;;
11247;SDS011;5681;53.316;13.950;2023-04-29T13:54:03;7.90;;;6.63;;
11247;SDS011;5681;53.316;13.950;2023-04-29T13:56:29;6.90;;;5.75;;
11247;SDS011;5681;53.316;13.950;2023-04-29T13:58:55;9.13;;;6.57;;
11247;SDS011;5681;53.316;13.950;2023-04-29T14:01:23;7.55;;;6.10;;
11247;SDS011;5681;53.316;13.950;2023-04-29T14:03:49;11.07;;;7.00;;
11247;SDS011;5681;53.316;13.950;2023-04-29T14:06:15;7.55;;;6.10;;
11247;SDS011;5681;53.316;13.950;2023-04-29T14:08:42;7.82;;;6.45;;
11247;SDS011;5681;53.316;13.950;2023-04-29T14:11:08;10.07;;;6.47;;
11247;SDS011;5681;53.316;13.950;2023-04-29T14:13:34;11.93;;;6.45;;
11247;SDS011;5681;53.316;13.950;2023-04-29T14:16:01;8.80;;;7.13;;
11247;SDS011;5681;53.316;13.950;2023-04-29T14:18:30;9.82;;;6.75;;
11247;SDS011;5681;53.316;13.950;2023-04-29T14:20:57;9.70;;;6.60;;
11247;SDS011;5681;53.316;13.950;2023-04-29T14:23:26;10.82;;;7.43;;
11247;SDS011;5681;53.316;13.950;2023-04-29T14:25:52;10.35;;;7.32;;
11247;SDS011;5681;53.316;13.950;2023-04-29T14:28:19;8.80;;;6.68;;
11247;SDS011;5681;53.316;13.950;2023-04-29T14:30:45;9.35;;;6.80;;
11247;SDS011;5681;53.316;13.950;2023-04-29T14:33:11;8.77;;;6.72;;